Relevés horaires Elsenborn (Belgique)


Relevés horaires à Elsenborn - Dimanche 03 Juill. 2022
Heure UTC1 Température [°C] Vent [km/h] Hum. [%] Pres.4 [hPa] Visi. [Km] Nébu. [octa] Préc.5 [mm] Cond.
2m. Res. Ros. Dir.2 Vit. Moy. Raf.3
23:00 9.5 9.5 8.5 NNO 1.9 -- 1.9 93 1022(0.7/3h) 20 -- -- --
22:00 10.6 10.6 8.9 NNO 1.9 -- 3.7 89 1021.7(1.2/3h) 20 -- -- --
21:00 11.5 11.5 9.0 NNO 1.9 -- 11.1 85 1021.2(1.1/3h) 20 -- -- --
20:00 14.2 14.2 8.8 NNO 1.9 -- 9.3 70 1020.1(0.7/3h) 20 -- -- --
19:00 16.7 16.7 9.1 NO 5.6 -- 11.1 61 1018.8(0.2/3h) 20 -- -- --
18:00 17.9 17.9 10.0 ONO 5.6 -- 14.8 60 1018.5(0.0/3h) 20 -- -- --
17:00 18.8 18.8 10.9 NO 7.4 -- 13.0 60 1018.1(0.2/3h) 20 -- -- --
16:00 18.3 18.3 11.2 ONO 5.6 -- 13.0 63 1018.2(0.3/3h) 20 -- -- --
15:00 19.6 19.6 11.2 O 5.6 -- 14.8 58 1018(0.3/3h) 20 -- -- --
14:00 20.8 20.8 12.2 O 5.6 -- 14.8 58 1017.3(0.1/3h) 20 -- -- --
13:00 19.6 19.6 11.2 NO 7.4 -- 13.0 58 1017.6(-0.2/3h) 20 -- -- --
12:00 21.3 21.3 12.0 O 5.6 -- 13.0 55 1017.2(-0.2/3h) 20 -- -- --
11:00 20.7 20.7 9.8 SO 7.4 -- 13.0 50 1017.6(0.0/3h) 20 -- -- --
10:00 20.4 20.4 10.0 O 7.4 -- 11.1 51 1017.7(0.2/3h) 20 -- -- --
09:00 19.9 19.9 11.5 OSO 5.6 -- 9.3 58 1017.7(0.3/3h) 20 -- -- --
08:00 17.8 17.8 11.3 O 5.6 -- 9.3 66 1018.2(0.3/3h) 18 -- -- --
07:00 17.5 17.5 11.3 NNO 1.9 -- 5.6 67 1018.1(0.4/3h) 20 -- -- --
06:00 15.1 15.1 10.1 NNO 1.9 -- 3.7 72 1018.5(0.4/3h) 20 -- -- --
05:00 10.9 10.9 8.6 NNO 0.0 -- 1.9 86 1019.6(0.3/3h) 20 -- -- --
04:00 7.6 7.6 7.3 NNO 1.9 -- 1.9 98 1020.1(-0.1/3h) 20 -- -- --
03:00 8.0 8.0 7.5 NNO 1.9 -- 3.7 97 1019.7(-0.4/3h) 20 -- -- --
02:00 8.4 8.4 8.0 NNO 1.9 -- 1.9 97 1019.7(-0.7/3h) 20 -- -- --
01:00 9.0 9.0 8.2 NNO 1.9 -- 3.7 95 1019.8(-0.5/3h) 20 -- -- --
00:00 9.6 9.6 8.6 NNO 1.9 -- 7.4 93 1019.8(-0.4/3h) 20 -- -- --

1 Coordinated Universal Time. Actuellement il est 20:00 locale et 18:00 UTC.

2 Le vent souffle depuis la direction indiquée vers la direction oposée.

3 Les rafales max. sont disponible 40 min après l'heure du relevé.

4 Pour les stations d'altitude (plus de 600m) le géopotentiel du niveau le plus proche de la pression obligatoire est indiqué.

5 Les stations disposant d'un diffuseur peuvent indiquer "trace". Cela signifie que des précipitations ont touchés le sol mais que la quantité est inférieure à 0.1 mm.

Récapitulatif de la journée
Température [°C] Vent [km/h] Ensoleillement4 [h] Precipitations totale5 [mm] Pression [Hpa]
Min1 Max.2 Moy.3 Max. Min Max.
7.4 21.9 0 14.8 0 h 0 min 0 1017.2 1022.0

1 Température minimale relevée entre 18:00 UTC la veille et 18:00 UTC le jour donné.

2 Température maximale relevée entre 06:00 UTC le jour donné et 06:00 UTC le lendemain.

3 Vent moyen de la journée basé sur les relevés horaires.

4 Ensoleillement en heures relevé entre 06:00 UTC la veille et 06:00 UTC le jour donné.

5 Précipitations totales tombées entre 06:00 UTC la jour donné et 06:00 UTC le lendemain.

Graphiques horaires